sensor_id;sensor_type;location;lat;lon;timestamp;temperature;humidity
49379;DHT22;35254;47.990;-1.608;2023-05-29T00:00:33;22.40;60.60
49379;DHT22;35254;47.990;-1.608;2023-05-29T00:02:59;22.40;60.60
49379;DHT22;35254;47.990;-1.608;2023-05-29T00:05:24;22.40;60.70
49379;DHT22;35254;47.990;-1.608;2023-05-29T00:07:50;22.30;60.60
49379;DHT22;35254;47.990;-1.608;2023-05-29T00:10:16;22.40;60.50
49379;DHT22;35254;47.990;-1.608;2023-05-29T00:12:42;22.40;60.40
49379;DHT22;35254;47.990;-1.608;2023-05-29T00:15:08;22.40;60.40
49379;DHT22;35254;47.990;-1.608;2023-05-29T00:17:35;22.40;60.40
49379;DHT22;35254;47.990;-1.608;2023-05-29T00:20:01;22.30;60.40
49379;DHT22;35254;47.990;-1.608;2023-05-29T00:22:32;22.30;60.40
49379;DHT22;35254;47.990;-1.608;2023-05-29T00:24:58;22.30;60.40
49379;DHT22;35254;47.990;-1.608;2023-05-29T00:27:23;22.30;60.40
49379;DHT22;35254;47.990;-1.608;2023-05-29T00:29:49;22.30;60.30
49379;DHT22;35254;47.990;-1.608;2023-05-29T00:32:15;22.30;60.30
49379;DHT22;35254;47.990;-1.608;2023-05-29T00:34:41;22.30;60.40
49379;DHT22;35254;47.990;-1.608;2023-05-29T00:37:06;22.30;60.20
49379;DHT22;35254;47.990;-1.608;2023-05-29T00:39:32;22.30;60.20
49379;DHT22;35254;47.990;-1.608;2023-05-29T00:41:57;22.30;60.20
49379;DHT22;35254;47.990;-1.608;2023-05-29T00:44:23;22.30;60.20
49379;DHT22;35254;47.990;-1.608;2023-05-29T00:46:51;22.30;60.30
49379;DHT22;35254;47.990;-1.608;2023-05-29T00:49:19;22.30;60.20
49379;DHT22;35254;47.990;-1.608;2023-05-29T00:51:45;22.30;60.20
49379;DHT22;35254;47.990;-1.608;2023-05-29T00:54:14;22.30;60.20
49379;DHT22;35254;47.990;-1.608;2023-05-29T00:56:40;22.30;60.10
49379;DHT22;35254;47.990;-1.608;2023-05-29T00:59:09;22.30;60.20
49379;DHT22;35254;47.990;-1.608;2023-05-29T01:01:35;22.30;60.10
49379;DHT22;35254;47.990;-1.608;2023-05-29T01:04:03;22.30;60.20
49379;DHT22;35254;47.990;-1.608;2023-05-29T01:06:35;22.30;60.20
49379;DHT22;35254;47.990;-1.608;2023-05-29T01:09:00;22.20;60.00
49379;DHT22;35254;47.990;-1.608;2023-05-29T01:14:21;22.20;60.20
49379;DHT22;35254;47.990;-1.608;2023-05-29T01:17:17;22.20;60.10
49379;DHT22;35254;47.990;-1.608;2023-05-29T01:24:49;22.20;60.10
49379;DHT22;35254;47.990;-1.608;2023-05-29T01:27:19;22.20;60.10
49379;DHT22;35254;47.990;-1.608;2023-05-29T01:29:47;22.20;60.00
49379;DHT22;35254;47.990;-1.608;2023-05-29T01:32:15;22.20;60.00
49379;DHT22;35254;47.990;-1.608;2023-05-29T01:34:41;22.20;60.10
49379;DHT22;35254;47.990;-1.608;2023-05-29T01:37:07;22.20;59.90
49379;DHT22;35254;47.990;-1.608;2023-05-29T01:39:33;22.20;60.00
49379;DHT22;35254;47.990;-1.608;2023-05-29T01:41:59;22.20;60.00
49379;DHT22;35254;47.990;-1.608;2023-05-29T01:44:26;22.20;60.10
49379;DHT22;35254;47.990;-1.608;2023-05-29T01:46:52;22.20;59.90
49379;DHT22;35254;47.990;-1.608;2023-05-29T01:49:19;22.20;59.90
49379;DHT22;35254;47.990;-1.608;2023-05-29T01:51:45;22.20;59.90
49379;DHT22;35254;47.990;-1.608;2023-05-29T01:54:11;22.20;59.90
49379;DHT22;35254;47.990;-1.608;2023-05-29T01:56:37;22.20;59.90
49379;DHT22;35254;47.990;-1.608;2023-05-29T01:59:03;22.20;59.80
49379;DHT22;35254;47.990;-1.608;2023-05-29T02:01:30;22.20;59.90
49379;DHT22;35254;47.990;-1.608;2023-05-29T02:03:56;22.20;59.90
49379;DHT22;35254;47.990;-1.608;2023-05-29T02:06:21;22.20;59.70
49379;DHT22;35254;47.990;-1.608;2023-05-29T02:08:47;22.20;59.80
49379;DHT22;35254;47.990;-1.608;2023-05-29T02:11:13;22.20;59.70
49379;DHT22;35254;47.990;-1.608;2023-05-29T02:13:39;22.20;59.90
49379;DHT22;35254;47.990;-1.608;2023-05-29T02:16:05;22.20;59.70
49379;DHT22;35254;47.990;-1.608;2023-05-29T02:18:30;22.20;59.30
49379;DHT22;35254;47.990;-1.608;2023-05-29T02:20:56;22.20;59.40
49379;DHT22;35254;47.990;-1.608;2023-05-29T02:23:22;22.10;59.00
49379;DHT22;35254;47.990;-1.608;2023-05-29T02:25:48;22.20;58.90
49379;DHT22;35254;47.990;-1.608;2023-05-29T02:28:13;22.20;58.90
49379;DHT22;35254;47.990;-1.608;2023-05-29T02:30:39;22.10;58.50
49379;DHT22;35254;47.990;-1.608;2023-05-29T02:33:05;22.20;58.60
49379;DHT22;35254;47.990;-1.608;2023-05-29T02:35:31;22.10;58.10
49379;DHT22;35254;47.990;-1.608;2023-05-29T02:37:57;22.10;58.40
49379;DHT22;35254;47.990;-1.608;2023-05-29T02:40:23;22.20;58.30
49379;DHT22;35254;47.990;-1.608;2023-05-29T02:42:49;22.20;58.10
49379;DHT22;35254;47.990;-1.608;2023-05-29T02:45:15;22.10;57.70
49379;DHT22;35254;47.990;-1.608;2023-05-29T02:47:41;22.10;57.70
49379;DHT22;35254;47.990;-1.608;2023-05-29T02:50:07;22.10;57.70
49379;DHT22;35254;47.990;-1.608;2023-05-29T02:52:34;22.10;57.70
49379;DHT22;35254;47.990;-1.608;2023-05-29T02:55:00;22.10;57.20
49379;DHT22;35254;47.990;-1.608;2023-05-29T02:57:25;22.10;57.30
49379;DHT22;35254;47.990;-1.608;2023-05-29T02:59:51;22.10;57.10
49379;DHT22;35254;47.990;-1.608;2023-05-29T03:02:20;22.10;57.00
49379;DHT22;35254;47.990;-1.608;2023-05-29T03:04:46;22.00;57.10
49379;DHT22;35254;47.990;-1.608;2023-05-29T03:07:11;22.00;57.00
49379;DHT22;35254;47.990;-1.608;2023-05-29T03:09:38;22.10;57.10
49379;DHT22;35254;47.990;-1.608;2023-05-29T03:12:04;22.10;56.90
49379;DHT22;35254;47.990;-1.608;2023-05-29T03:14:29;22.10;57.00
49379;DHT22;35254;47.990;-1.608;2023-05-29T03:16:55;22.00;56.90
49379;DHT22;35254;47.990;-1.608;2023-05-29T03:19:21;22.00;56.70
49379;DHT22;35254;47.990;-1.608;2023-05-29T03:21:47;22.10;56.50
49379;DHT22;35254;47.990;-1.608;2023-05-29T03:24:13;22.10;56.80
49379;DHT22;35254;47.990;-1.608;2023-05-29T03:26:39;22.00;56.90
49379;DHT22;35254;47.990;-1.608;2023-05-29T03:29:04;22.00;56.80
49379;DHT22;35254;47.990;-1.608;2023-05-29T03:31:31;22.00;56.60
49379;DHT22;35254;47.990;-1.608;2023-05-29T03:33:56;22.00;56.70
49379;DHT22;35254;47.990;-1.608;2023-05-29T03:36:22;22.10;56.80
49379;DHT22;35254;47.990;-1.608;2023-05-29T03:38:48;22.00;56.80
49379;DHT22;35254;47.990;-1.608;2023-05-29T03:41:13;22.00;57.20
49379;DHT22;35254;47.990;-1.608;2023-05-29T03:43:39;22.10;57.10
49379;DHT22;35254;47.990;-1.608;2023-05-29T03:46:04;22.10;57.10
49379;DHT22;35254;47.990;-1.608;2023-05-29T03:48:30;22.10;57.20
49379;DHT22;35254;47.990;-1.608;2023-05-29T03:50:56;22.10;57.10
49379;DHT22;35254;47.990;-1.608;2023-05-29T03:53:21;22.10;57.20
49379;DHT22;35254;47.990;-1.608;2023-05-29T03:55:47;22.10;57.30
49379;DHT22;35254;47.990;-1.608;2023-05-29T03:58:13;22.10;57.60
49379;DHT22;35254;47.990;-1.608;2023-05-29T04:00:38;22.10;57.60
49379;DHT22;35254;47.990;-1.608;2023-05-29T04:03:05;22.10;57.60
49379;DHT22;35254;47.990;-1.608;2023-05-29T04:05:30;22.10;57.50
49379;DHT22;35254;47.990;-1.608;2023-05-29T04:07:56;22.10;57.60
49379;DHT22;35254;47.990;-1.608;2023-05-29T04:10:22;22.10;57.80
49379;DHT22;35254;47.990;-1.608;2023-05-29T04:12:49;22.10;57.90
49379;DHT22;35254;47.990;-1.608;2023-05-29T04:15:14;22.10;57.90
49379;DHT22;35254;47.990;-1.608;2023-05-29T04:17:40;22.10;57.90
49379;DHT22;35254;47.990;-1.608;2023-05-29T04:20:06;22.00;58.00
49379;DHT22;35254;47.990;-1.608;2023-05-29T04:22:37;22.10;57.90
49379;DHT22;35254;47.990;-1.608;2023-05-29T04:25:04;22.10;58.00
49379;DHT22;35254;47.990;-1.608;2023-05-29T04:27:30;22.00;58.10
49379;DHT22;35254;47.990;-1.608;2023-05-29T04:29:58;22.00;58.10
49379;DHT22;35254;47.990;-1.608;2023-05-29T04:32:23;22.00;58.00
49379;DHT22;35254;47.990;-1.608;2023-05-29T04:34:49;22.00;58.10
49379;DHT22;35254;47.990;-1.608;2023-05-29T04:37:16;22.00;58.10
49379;DHT22;35254;47.990;-1.608;2023-05-29T04:39:43;22.00;58.10
49379;DHT22;35254;47.990;-1.608;2023-05-29T04:42:09;22.00;58.10
49379;DHT22;35254;47.990;-1.608;2023-05-29T04:44:34;22.00;58.00
49379;DHT22;35254;47.990;-1.608;2023-05-29T04:47:00;22.00;58.10
49379;DHT22;35254;47.990;-1.608;2023-05-29T04:49:28;22.00;58.10
49379;DHT22;35254;47.990;-1.608;2023-05-29T04:51:54;22.00;58.10
49379;DHT22;35254;47.990;-1.608;2023-05-29T04:54:21;22.00;58.10
49379;DHT22;35254;47.990;-1.608;2023-05-29T04:56:47;22.00;58.10
49379;DHT22;35254;47.990;-1.608;2023-05-29T04:59:13;21.90;58.10
49379;DHT22;35254;47.990;-1.608;2023-05-29T05:01:38;22.00;58.10
49379;DHT22;35254;47.990;-1.608;2023-05-29T05:04:04;22.00;58.20
49379;DHT22;35254;47.990;-1.608;2023-05-29T05:06:30;22.00;58.20
49379;DHT22;35254;47.990;-1.608;2023-05-29T05:08:56;22.00;58.20
49379;DHT22;35254;47.990;-1.608;2023-05-29T05:11:23;22.00;58.30
49379;DHT22;35254;47.990;-1.608;2023-05-29T05:13:49;21.90;58.20
49379;DHT22;35254;47.990;-1.608;2023-05-29T05:16:15;21.90;58.20
49379;DHT22;35254;47.990;-1.608;2023-05-29T05:18:43;21.90;58.20
49379;DHT22;35254;47.990;-1.608;2023-05-29T05:21:08;21.90;58.10
49379;DHT22;35254;47.990;-1.608;2023-05-29T05:23:34;22.00;58.10
49379;DHT22;35254;47.990;-1.608;2023-05-29T05:26:00;21.90;58.20
49379;DHT22;35254;47.990;-1.608;2023-05-29T05:28:25;21.90;58.10
49379;DHT22;35254;47.990;-1.608;2023-05-29T05:30:51;21.90;58.00
49379;DHT22;35254;47.990;-1.608;2023-05-29T05:33:17;21.90;58.20
49379;DHT22;35254;47.990;-1.608;2023-05-29T05:35:43;21.90;58.10
49379;DHT22;35254;47.990;-1.608;2023-05-29T05:38:08;21.90;57.90
49379;DHT22;35254;47.990;-1.608;2023-05-29T05:40:34;21.90;58.00
49379;DHT22;35254;47.990;-1.608;2023-05-29T05:43:00;21.90;57.90
49379;DHT22;35254;47.990;-1.608;2023-05-29T05:45:26;21.90;58.10
49379;DHT22;35254;47.990;-1.608;2023-05-29T05:47:51;21.90;58.00
49379;DHT22;35254;47.990;-1.608;2023-05-29T05:50:17;21.90;58.10
49379;DHT22;35254;47.990;-1.608;2023-05-29T05:52:42;21.90;58.00
49379;DHT22;35254;47.990;-1.608;2023-05-29T05:55:08;21.90;58.10
49379;DHT22;35254;47.990;-1.608;2023-05-29T05:57:35;21.90;58.00
49379;DHT22;35254;47.990;-1.608;2023-05-29T06:00:05;21.90;58.20
49379;DHT22;35254;47.990;-1.608;2023-05-29T06:02:34;21.80;58.10
49379;DHT22;35254;47.990;-1.608;2023-05-29T06:04:59;21.90;58.20
49379;DHT22;35254;47.990;-1.608;2023-05-29T06:07:25;21.90;58.20
49379;DHT22;35254;47.990;-1.608;2023-05-29T06:09:51;21.90;58.30
49379;DHT22;35254;47.990;-1.608;2023-05-29T06:12:17;21.80;58.20
49379;DHT22;35254;47.990;-1.608;2023-05-29T06:14:42;21.80;58.20
49379;DHT22;35254;47.990;-1.608;2023-05-29T06:17:08;21.80;58.00
49379;DHT22;35254;47.990;-1.608;2023-05-29T06:19:33;21.80;58.20
49379;DHT22;35254;47.990;-1.608;2023-05-29T06:21:59;21.80;58.20
49379;DHT22;35254;47.990;-1.608;2023-05-29T06:24:25;21.80;58.20
49379;DHT22;35254;47.990;-1.608;2023-05-29T06:26:50;21.80;58.20
49379;DHT22;35254;47.990;-1.608;2023-05-29T06:29:16;21.90;58.20
49379;DHT22;35254;47.990;-1.608;2023-05-29T06:31:42;21.80;58.00
49379;DHT22;35254;47.990;-1.608;2023-05-29T06:34:08;21.80;58.10
49379;DHT22;35254;47.990;-1.608;2023-05-29T06:36:33;21.80;58.00
49379;DHT22;35254;47.990;-1.608;2023-05-29T06:39:01;21.80;58.00
49379;DHT22;35254;47.990;-1.608;2023-05-29T06:41:26;21.80;58.10
49379;DHT22;35254;47.990;-1.608;2023-05-29T06:43:52;21.80;58.10
49379;DHT22;35254;47.990;-1.608;2023-05-29T06:46:18;21.80;58.00
49379;DHT22;35254;47.990;-1.608;2023-05-29T06:48:43;21.80;58.10
49379;DHT22;35254;47.990;-1.608;2023-05-29T06:51:09;21.80;57.90
49379;DHT22;35254;47.990;-1.608;2023-05-29T06:53:36;21.80;58.10
49379;DHT22;35254;47.990;-1.608;2023-05-29T06:56:02;21.70;58.20
49379;DHT22;35254;47.990;-1.608;2023-05-29T06:58:30;21.80;58.30
49379;DHT22;35254;47.990;-1.608;2023-05-29T07:00:56;21.80;58.30
49379;DHT22;35254;47.990;-1.608;2023-05-29T07:03:22;21.80;58.30
49379;DHT22;35254;47.990;-1.608;2023-05-29T07:05:47;21.80;58.30
49379;DHT22;35254;47.990;-1.608;2023-05-29T07:08:13;21.80;58.40
49379;DHT22;35254;47.990;-1.608;2023-05-29T07:10:39;21.80;58.30
49379;DHT22;35254;47.990;-1.608;2023-05-29T07:13:04;21.80;58.50
49379;DHT22;35254;47.990;-1.608;2023-05-29T07:15:32;21.80;58.30
49379;DHT22;35254;47.990;-1.608;2023-05-29T07:17:57;21.80;58.30
49379;DHT22;35254;47.990;-1.608;2023-05-29T07:20:23;21.80;58.30
49379;DHT22;35254;47.990;-1.608;2023-05-29T07:22:48;21.80;58.20
49379;DHT22;35254;47.990;-1.608;2023-05-29T07:25:14;21.80;58.20
49379;DHT22;35254;47.990;-1.608;2023-05-29T07:27:40;21.80;58.10
49379;DHT22;35254;47.990;-1.608;2023-05-29T07:30:06;21.70;58.10
49379;DHT22;35254;47.990;-1.608;2023-05-29T07:32:33;21.70;58.20
49379;DHT22;35254;47.990;-1.608;2023-05-29T07:34:58;21.80;58.00
49379;DHT22;35254;47.990;-1.608;2023-05-29T07:37:24;21.80;58.10
49379;DHT22;35254;47.990;-1.608;2023-05-29T07:39:50;21.70;58.20
49379;DHT22;35254;47.990;-1.608;2023-05-29T07:42:15;21.80;58.40
49379;DHT22;35254;47.990;-1.608;2023-05-29T07:44:42;21.80;58.40
49379;DHT22;35254;47.990;-1.608;2023-05-29T07:47:08;21.80;58.40
49379;DHT22;35254;47.990;-1.608;2023-05-29T07:49:34;21.80;58.30
49379;DHT22;35254;47.990;-1.608;2023-05-29T07:52:02;21.80;58.50
49379;DHT22;35254;47.990;-1.608;2023-05-29T07:54:27;21.80;58.60
49379;DHT22;35254;47.990;-1.608;2023-05-29T07:56:53;21.80;58.70
49379;DHT22;35254;47.990;-1.608;2023-05-29T07:59:20;21.80;58.60
49379;DHT22;35254;47.990;-1.608;2023-05-29T08:01:46;21.80;58.50
49379;DHT22;35254;47.990;-1.608;2023-05-29T08:04:12;21.80;58.40
49379;DHT22;35254;47.990;-1.608;2023-05-29T08:06:39;21.80;58.30
49379;DHT22;35254;47.990;-1.608;2023-05-29T08:09:07;21.80;58.40
49379;DHT22;35254;47.990;-1.608;2023-05-29T08:11:33;21.80;58.30
49379;DHT22;35254;47.990;-1.608;2023-05-29T08:13:59;21.80;58.20
49379;DHT22;35254;47.990;-1.608;2023-05-29T08:16:25;21.80;58.30
49379;DHT22;35254;47.990;-1.608;2023-05-29T08:18:52;21.80;58.30
49379;DHT22;35254;47.990;-1.608;2023-05-29T08:21:18;21.80;58.00
49379;DHT22;35254;47.990;-1.608;2023-05-29T08:23:44;21.80;58.30
49379;DHT22;35254;47.990;-1.608;2023-05-29T08:26:09;21.80;58.50
49379;DHT22;35254;47.990;-1.608;2023-05-29T08:28:35;21.80;58.20
49379;DHT22;35254;47.990;-1.608;2023-05-29T08:31:00;21.80;58.20
49379;DHT22;35254;47.990;-1.608;2023-05-29T08:33:26;21.80;58.10
49379;DHT22;35254;47.990;-1.608;2023-05-29T08:35:52;21.80;58.10
49379;DHT22;35254;47.990;-1.608;2023-05-29T08:38:17;21.80;58.10
49379;DHT22;35254;47.990;-1.608;2023-05-29T08:40:43;21.80;58.10
49379;DHT22;35254;47.990;-1.608;2023-05-29T08:43:21;21.80;58.10
49379;DHT22;35254;47.990;-1.608;2023-05-29T08:45:49;21.80;58.00
49379;DHT22;35254;47.990;-1.608;2023-05-29T08:48:18;21.80;57.80
49379;DHT22;35254;47.990;-1.608;2023-05-29T08:50:48;21.80;58.00
49379;DHT22;35254;47.990;-1.608;2023-05-29T08:53:14;21.80;58.20
49379;DHT22;35254;47.990;-1.608;2023-05-29T08:55:41;21.80;58.10
49379;DHT22;35254;47.990;-1.608;2023-05-29T08:58:06;21.80;57.90
49379;DHT22;35254;47.990;-1.608;2023-05-29T09:00:33;21.80;57.90
49379;DHT22;35254;47.990;-1.608;2023-05-29T09:02:59;21.80;57.80
49379;DHT22;35254;47.990;-1.608;2023-05-29T09:05:25;21.80;57.80
49379;DHT22;35254;47.990;-1.608;2023-05-29T09:07:55;21.80;57.90
49379;DHT22;35254;47.990;-1.608;2023-05-29T09:10:21;21.80;57.90
49379;DHT22;35254;47.990;-1.608;2023-05-29T09:12:47;21.80;57.70
49379;DHT22;35254;47.990;-1.608;2023-05-29T09:15:23;21.80;57.80
49379;DHT22;35254;47.990;-1.608;2023-05-29T09:17:52;21.80;57.80
49379;DHT22;35254;47.990;-1.608;2023-05-29T09:20:19;21.80;57.80
49379;DHT22;35254;47.990;-1.608;2023-05-29T09:22:55;21.80;57.70
49379;DHT22;35254;47.990;-1.608;2023-05-29T09:25:23;21.80;57.80
49379;DHT22;35254;47.990;-1.608;2023-05-29T09:28:03;21.80;57.90
49379;DHT22;35254;47.990;-1.608;2023-05-29T09:30:41;21.80;57.70
49379;DHT22;35254;47.990;-1.608;2023-05-29T09:33:09;21.80;58.00
49379;DHT22;35254;47.990;-1.608;2023-05-29T09:35:45;21.70;58.00
49379;DHT22;35254;47.990;-1.608;2023-05-29T09:38:13;21.80;58.00
49379;DHT22;35254;47.990;-1.608;2023-05-29T09:40:40;21.80;57.80
49379;DHT22;35254;47.990;-1.608;2023-05-29T09:43:13;21.80;57.90
49379;DHT22;35254;47.990;-1.608;2023-05-29T09:45:47;21.80;57.90
49379;DHT22;35254;47.990;-1.608;2023-05-29T09:48:15;21.80;57.90
49379;DHT22;35254;47.990;-1.608;2023-05-29T09:50:41;21.80;58.10
49379;DHT22;35254;47.990;-1.608;2023-05-29T09:53:21;21.80;58.10
49379;DHT22;35254;47.990;-1.608;2023-05-29T09:55:48;21.80;58.10
49379;DHT22;35254;47.990;-1.608;2023-05-29T09:58:14;21.80;58.20
49379;DHT22;35254;47.990;-1.608;2023-05-29T10:00:44;21.80;58.10
49379;DHT22;35254;47.990;-1.608;2023-05-29T10:03:10;21.80;58.20
49379;DHT22;35254;47.990;-1.608;2023-05-29T10:05:39;21.80;58.10
49379;DHT22;35254;47.990;-1.608;2023-05-29T10:08:09;21.80;58.30
49379;DHT22;35254;47.990;-1.608;2023-05-29T10:10:37;21.80;58.20
49379;DHT22;35254;47.990;-1.608;2023-05-29T10:13:06;21.80;58.30
49379;DHT22;35254;47.990;-1.608;2023-05-29T10:15:36;21.80;58.40
49379;DHT22;35254;47.990;-1.608;2023-05-29T10:18:13;21.70;58.30
49379;DHT22;35254;47.990;-1.608;2023-05-29T10:20:41;21.80;58.30
49379;DHT22;35254;47.990;-1.608;2023-05-29T10:23:10;21.80;58.20
49379;DHT22;35254;47.990;-1.608;2023-05-29T10:25:37;21.80;58.20
49379;DHT22;35254;47.990;-1.608;2023-05-29T10:28:04;21.80;58.20
49379;DHT22;35254;47.990;-1.608;2023-05-29T10:30:38;21.80;58.20
49379;DHT22;35254;47.990;-1.608;2023-05-29T10:38:30;21.80;58.20
49379;DHT22;35254;47.990;-1.608;2023-05-29T10:40:58;21.80;58.20
49379;DHT22;35254;47.990;-1.608;2023-05-29T10:43:42;21.80;58.20
49379;DHT22;35254;47.990;-1.608;2023-05-29T10:46:09;21.80;58.20
49379;DHT22;35254;47.990;-1.608;2023-05-29T10:48:39;21.80;58.30
49379;DHT22;35254;47.990;-1.608;2023-05-29T10:51:07;21.80;58.50
49379;DHT22;35254;47.990;-1.608;2023-05-29T10:53:33;21.80;58.30
49379;DHT22;35254;47.990;-1.608;2023-05-29T10:56:00;21.80;58.40
49379;DHT22;35254;47.990;-1.608;2023-05-29T10:58:30;21.80;58.30
49379;DHT22;35254;47.990;-1.608;2023-05-29T11:00:55;21.80;58.50
49379;DHT22;35254;47.990;-1.608;2023-05-29T11:03:33;21.80;58.40
49379;DHT22;35254;47.990;-1.608;2023-05-29T11:06:04;21.80;58.30
49379;DHT22;35254;47.990;-1.608;2023-05-29T11:08:34;21.80;58.50
49379;DHT22;35254;47.990;-1.608;2023-05-29T11:11:01;21.80;58.60
49379;DHT22;35254;47.990;-1.608;2023-05-29T11:16:19;21.80;58.80
49379;DHT22;35254;47.990;-1.608;2023-05-29T11:18:46;21.80;58.60
49379;DHT22;35254;47.990;-1.608;2023-05-29T11:24:05;21.80;58.60
49379;DHT22;35254;47.990;-1.608;2023-05-29T11:26:32;21.80;58.60
49379;DHT22;35254;47.990;-1.608;2023-05-29T11:29:04;21.80;58.50
49379;DHT22;35254;47.990;-1.608;2023-05-29T11:31:33;21.80;58.60
49379;DHT22;35254;47.990;-1.608;2023-05-29T11:34:00;21.80;58.70
49379;DHT22;35254;47.990;-1.608;2023-05-29T11:36:28;21.80;58.80
49379;DHT22;35254;47.990;-1.608;2023-05-29T11:38:54;21.80;58.70
49379;DHT22;35254;47.990;-1.608;2023-05-29T11:41:19;21.80;58.70
49379;DHT22;35254;47.990;-1.608;2023-05-29T11:43:59;21.80;58.60
49379;DHT22;35254;47.990;-1.608;2023-05-29T11:46:26;21.80;58.70
49379;DHT22;35254;47.990;-1.608;2023-05-29T11:48:53;21.80;58.90
49379;DHT22;35254;47.990;-1.608;2023-05-29T11:51:19;21.80;58.80
49379;DHT22;35254;47.990;-1.608;2023-05-29T11:53:47;21.80;58.80
49379;DHT22;35254;47.990;-1.608;2023-05-29T11:56:13;21.80;58.80
49379;DHT22;35254;47.990;-1.608;2023-05-29T11:58:39;21.80;59.00
49379;DHT22;35254;47.990;-1.608;2023-05-29T12:01:07;21.80;59.00
49379;DHT22;35254;47.990;-1.608;2023-05-29T12:03:42;21.80;59.10
49379;DHT22;35254;47.990;-1.608;2023-05-29T12:06:10;21.80;59.20
49379;DHT22;35254;47.990;-1.608;2023-05-29T12:08:37;21.80;59.10
49379;DHT22;35254;47.990;-1.608;2023-05-29T12:11:03;21.80;59.00
49379;DHT22;35254;47.990;-1.608;2023-05-29T12:13:29;21.80;59.20
49379;DHT22;35254;47.990;-1.608;2023-05-29T12:15:57;21.80;59.10
49379;DHT22;35254;47.990;-1.608;2023-05-29T12:18:25;21.80;59.20
49379;DHT22;35254;47.990;-1.608;2023-05-29T12:21:00;21.90;59.30
49379;DHT22;35254;47.990;-1.608;2023-05-29T12:23:27;21.90;59.10
49379;DHT22;35254;47.990;-1.608;2023-05-29T12:25:53;21.90;59.20
49379;DHT22;35254;47.990;-1.608;2023-05-29T12:28:20;21.80;59.20
49379;DHT22;35254;47.990;-1.608;2023-05-29T12:30:47;21.80;59.20
49379;DHT22;35254;47.990;-1.608;2023-05-29T12:33:30;21.90;59.60
49379;DHT22;35254;47.990;-1.608;2023-05-29T12:36:09;21.90;59.50
49379;DHT22;35254;47.990;-1.608;2023-05-29T12:38:50;21.90;59.40
49379;DHT22;35254;47.990;-1.608;2023-05-29T12:41:36;21.90;59.40
49379;DHT22;35254;47.990;-1.608;2023-05-29T12:44:03;21.90;59.30
49379;DHT22;35254;47.990;-1.608;2023-05-29T12:46:36;21.90;59.30
49379;DHT22;35254;47.990;-1.608;2023-05-29T12:49:16;21.90;59.20
49379;DHT22;35254;47.990;-1.608;2023-05-29T12:51:43;21.90;59.30
49379;DHT22;35254;47.990;-1.608;2023-05-29T12:54:13;21.90;59.30
49379;DHT22;35254;47.990;-1.608;2023-05-29T12:56:40;21.90;59.40
49379;DHT22;35254;47.990;-1.608;2023-05-29T12:59:07;21.90;59.40
49379;DHT22;35254;47.990;-1.608;2023-05-29T13:01:33;21.90;59.40
49379;DHT22;35254;47.990;-1.608;2023-05-29T13:03:59;21.90;59.30
49379;DHT22;35254;47.990;-1.608;2023-05-29T13:06:25;21.90;59.50
49379;DHT22;35254;47.990;-1.608;2023-05-29T13:08:51;21.90;59.60
49379;DHT22;35254;47.990;-1.608;2023-05-29T13:11:17;21.90;59.30
49379;DHT22;35254;47.990;-1.608;2023-05-29T13:13:43;21.90;59.40
49379;DHT22;35254;47.990;-1.608;2023-05-29T13:16:09;21.90;59.50
49379;DHT22;35254;47.990;-1.608;2023-05-29T13:18:34;21.90;59.50
49379;DHT22;35254;47.990;-1.608;2023-05-29T13:21:00;21.90;59.50
49379;DHT22;35254;47.990;-1.608;2023-05-29T13:23:26;21.90;59.60
49379;DHT22;35254;47.990;-1.608;2023-05-29T13:25:51;21.90;59.60
49379;DHT22;35254;47.990;-1.608;2023-05-29T13:28:17;21.90;59.50
49379;DHT22;35254;47.990;-1.608;2023-05-29T13:30:43;21.90;59.50
49379;DHT22;35254;47.990;-1.608;2023-05-29T13:33:10;22.00;59.30
49379;DHT22;35254;47.990;-1.608;2023-05-29T13:35:35;21.90;59.30
49379;DHT22;35254;47.990;-1.608;2023-05-29T13:38:01;22.00;59.50
49379;DHT22;35254;47.990;-1.608;2023-05-29T13:40:27;21.90;59.50
49379;DHT22;35254;47.990;-1.608;2023-05-29T13:42:53;22.00;59.30
49379;DHT22;35254;47.990;-1.608;2023-05-29T13:45:19;22.00;59.60
49379;DHT22;35254;47.990;-1.608;2023-05-29T13:47:45;22.00;59.40
49379;DHT22;35254;47.990;-1.608;2023-05-29T13:50:11;22.00;59.40
49379;DHT22;35254;47.990;-1.608;2023-05-29T13:52:36;22.00;59.60
49379;DHT22;35254;47.990;-1.608;2023-05-29T13:55:02;22.00;59.50
49379;DHT22;35254;47.990;-1.608;2023-05-29T13:57:36;22.00;59.50
49379;DHT22;35254;47.990;-1.608;2023-05-29T14:00:04;22.00;59.50
49379;DHT22;35254;47.990;-1.608;2023-05-29T14:02:29;22.00;59.50
49379;DHT22;35254;47.990;-1.608;2023-05-29T14:04:55;22.00;59.60
49379;DHT22;35254;47.990;-1.608;2023-05-29T14:07:20;22.00;59.70
49379;DHT22;35254;47.990;-1.608;2023-05-29T14:09:46;22.00;59.80
49379;DHT22;35254;47.990;-1.608;2023-05-29T14:12:12;22.00;59.90
49379;DHT22;35254;47.990;-1.608;2023-05-29T14:14:37;22.00;59.80
49379;DHT22;35254;47.990;-1.608;2023-05-29T14:17:04;22.00;60.00
49379;DHT22;35254;47.990;-1.608;2023-05-29T14:19:30;22.00;60.00
49379;DHT22;35254;47.990;-1.608;2023-05-29T14:21:56;22.00;59.90
49379;DHT22;35254;47.990;-1.608;2023-05-29T14:24:22;22.10;59.80
49379;DHT22;35254;47.990;-1.608;2023-05-29T14:26:47;22.00;59.90
49379;DHT22;35254;47.990;-1.608;2023-05-29T14:29:14;22.00;60.00
49379;DHT22;35254;47.990;-1.608;2023-05-29T14:31:41;22.00;59.90
49379;DHT22;35254;47.990;-1.608;2023-05-29T14:34:07;22.10;59.80
49379;DHT22;35254;47.990;-1.608;2023-05-29T14:36:32;22.10;60.00
49379;DHT22;35254;47.990;-1.608;2023-05-29T14:38:58;22.10;60.00
49379;DHT22;35254;47.990;-1.608;2023-05-29T14:41:23;22.10;60.00
49379;DHT22;35254;47.990;-1.608;2023-05-29T14:43:50;22.10;60.00
49379;DHT22;35254;47.990;-1.608;2023-05-29T14:46:17;22.10;60.10
49379;DHT22;35254;47.990;-1.608;2023-05-29T14:48:43;22.10;60.10
49379;DHT22;35254;47.990;-1.608;2023-05-29T14:51:08;22.00;59.90
49379;DHT22;35254;47.990;-1.608;2023-05-29T14:53:35;22.10;59.90
49379;DHT22;35254;47.990;-1.608;2023-05-29T14:56:01;22.10;59.90
49379;DHT22;35254;47.990;-1.608;2023-05-29T14:58:27;22.10;60.00
49379;DHT22;35254;47.990;-1.608;2023-05-29T15:00:53;22.10;59.90
49379;DHT22;35254;47.990;-1.608;2023-05-29T15:03:18;22.10;59.90
49379;DHT22;35254;47.990;-1.608;2023-05-29T15:05:44;22.10;60.10
49379;DHT22;35254;47.990;-1.608;2023-05-29T15:08:10;22.10;60.00
49379;DHT22;35254;47.990;-1.608;2023-05-29T15:10:35;22.10;60.00
49379;DHT22;35254;47.990;-1.608;2023-05-29T15:13:01;22.10;60.10
49379;DHT22;35254;47.990;-1.608;2023-05-29T15:15:29;22.10;60.10
49379;DHT22;35254;47.990;-1.608;2023-05-29T15:17:55;22.10;60.10
49379;DHT22;35254;47.990;-1.608;2023-05-29T15:20:22;22.10;60.00
49379;DHT22;35254;47.990;-1.608;2023-05-29T15:22:48;22.10;60.10
49379;DHT22;35254;47.990;-1.608;2023-05-29T15:25:15;22.10;60.10
49379;DHT22;35254;47.990;-1.608;2023-05-29T15:27:41;22.10;60.00
49379;DHT22;35254;47.990;-1.608;2023-05-29T15:30:14;22.10;60.00
49379;DHT22;35254;47.990;-1.608;2023-05-29T15:32:41;22.10;60.10